Aitana Del Mar — EBWK — position and weather

sailwx.info

Track history (hours):
 
Tides and Currents Weather Stations Pressure Air Temp Water Temp Dewpoint Dewpoint Depression Visibility Wind Speed Wind Dir Waves Ship Positions

Aitana Del Mar

Last reported at 2018-Jul-21 17:17 UTC. Time now 2018-Jul-23 17:38 UTC.
Position N 43°34' W 003°46'.

Length 31 m; draft 3.6 m.

Type: Fishing. MMSI: 224064850.

Date/timePositionNaut miles runAvg speedWind from/ knotsBaromVisibWave heightAir tempDewpointWater temp
2018-Jul-21 17:17N 43°34' W 003°46'3 8.7
2018-Jul-21 16:53N 43°33' W 003°41'3 8.8
2018-Jul-21 16:30N 43°32' W 003°37'5 9.2
2018-Jul-21 16:01N 43°31' W 003°31'5 9.5
2018-Jul-21 15:30N 43°28' W 003°26'3 0.1
2018-Jul-19 14:34N 43°25' W 003°25'0 7.7
2018-Jul-19 14:30N 43°25' W 003°25'10 9.9
2018-Jul-19 13:30N 43°30' W 003°12'5 9.9
2018-Jul-19 12:57N 43°33' W 003°06'5 9.0
2018-Jul-19 12:24N 43°36' W 003°01'5 8.0
2018-Jul-19 11:45N 43°40' W 002°56'2 8.3
2018-Jul-19 11:29N 43°41' W 002°59'5 8.9
2018-Jul-19 10:57N 43°42' W 003°05'6 7.0
2018-Jul-19 10:05N 43°44' W 003°13'3 7.5
2018-Jul-19 09:37N 43°44' W 003°18'2 8.8
2018-Jul-19 09:20N 43°44' W 003°21'  
2018-Jul-15 19:28N 44°27' W 003°58'18 1.9
2018-Jul-15 09:56N 44°34' W 003°35'22 2.9
2018-Jul-15 02:20N 44°29' W 004°04'21 4.5
2018-Jul-14 21:44N 44°40' W 004°29'44 1.7
2018-Jul-13 20:19N 45°21' W 004°05'91 2.6
2018-Jul-12 09:10N 44°10' W 002°46'2 9.4
2018-Jul-12 09:00N 44°09' W 002°45'3 6.2
2018-Jul-12 08:30N 44°06' W 002°45'4 8.3
2018-Jul-12 08:00N 44°02' W 002°44'4 8.9
2018-Jul-12 07:30N 43°57' W 002°44'4 8.2
2018-Jul-12 07:00N 43°53' W 002°45'4 7.9
2018-Jul-12 06:29N 43°49' W 002°46'3 7.1
2018-Jul-12 06:00N 43°46' W 002°49'3 5.6
2018-Jul-12 05:30N 43°45' W 002°52'2 3.9
2018-Jul-12 05:01N 43°43' W 002°50'2 4.9
2018-Jul-12 04:30N 43°41' W 002°49'0 0.8
2018-Jul-12 04:00N 43°40' W 002°49'1 1.1
2018-Jul-12 03:30N 43°41' W 002°50'0 0.8
2018-Jul-12 03:00N 43°41' W 002°50'0 0.7
2018-Jul-12 02:30N 43°42' W 002°50'0 0.5
2018-Jul-12 02:00N 43°42' W 002°50'0 0.5
2018-Jul-12 01:30N 43°42' W 002°50'0 0.5
2018-Jul-12 01:00N 43°42' W 002°50'0 0.5
2018-Jul-12 00:30N 43°43' W 002°50'0 0.5
2018-Jul-12 00:00N 43°43' W 002°50'0 0.4
2018-Jul-11 23:30N 43°43' W 002°50'0 0.4
2018-Jul-11 23:00N 43°43' W 002°50'0 0.5
2018-Jul-11 22:30N 43°43' W 002°49'0 0.7
2018-Jul-11 22:00N 43°44' W 002°49'0 0.7
2018-Jul-11 21:30N 43°44' W 002°49'0 0.7
2018-Jul-11 21:00N 43°44' W 002°48'0 0.8
2018-Jul-11 20:30N 43°44' W 002°48'1 1.7
2018-Jul-11 20:00N 43°45' W 002°48'1 1.4
2018-Jul-11 19:30N 43°45' W 002°49'2 4.4
2018-Jul-11 19:00N 43°46' W 002°52'1 2.4
2018-Jul-11 18:30N 43°47' W 002°54'3 5.8
2018-Jul-11 18:01N 43°47' W 002°57'2 2.9
2018-Jul-11 17:23N 43°46' W 002°59'  
Track history (hours):
 
Tides and Currents Weather Stations Pressure Air Temp Water Temp Dewpoint Dewpoint Depression Visibility Wind Speed Wind Dir Waves Ship Positions

Aitana Del Mar

Last reported at 2018-Jul-21 17:17 UTC. Time now 2018-Jul-23 17:38 UTC.
Position N 43°34' W 003°46'.

Length 31 m; draft 3.6 m.

Type: Fishing. MMSI: 224064850.

Date/timePositionNaut miles runAvg speedWind from/ knotsBaromVisibWave heightAir tempDewpointWater temp
2018-Jul-21 17:17N 43°34' W 003°46'3 8.7
2018-Jul-21 16:53N 43°33' W 003°41'3 8.8
2018-Jul-21 16:30N 43°32' W 003°37'5 9.2
2018-Jul-21 16:01N 43°31' W 003°31'5 9.5
2018-Jul-21 15:30N 43°28' W 003°26'3 0.1
2018-Jul-19 14:34N 43°25' W 003°25'0 7.7
2018-Jul-19 14:30N 43°25' W 003°25'10 9.9
2018-Jul-19 13:30N 43°30' W 003°12'5 9.9
2018-Jul-19 12:57N 43°33' W 003°06'5 9.0
2018-Jul-19 12:24N 43°36' W 003°01'5 8.0
2018-Jul-19 11:45N 43°40' W 002°56'2 8.3
2018-Jul-19 11:29N 43°41' W 002°59'5 8.9
2018-Jul-19 10:57N 43°42' W 003°05'6 7.0
2018-Jul-19 10:05N 43°44' W 003°13'3 7.5
2018-Jul-19 09:37N 43°44' W 003°18'2 8.8
2018-Jul-19 09:20N 43°44' W 003°21'  
2018-Jul-15 19:28N 44°27' W 003°58'18 1.9
2018-Jul-15 09:56N 44°34' W 003°35'22 2.9
2018-Jul-15 02:20N 44°29' W 004°04'21 4.5
2018-Jul-14 21:44N 44°40' W 004°29'44 1.7
2018-Jul-13 20:19N 45°21' W 004°05'91 2.6
2018-Jul-12 09:10N 44°10' W 002°46'2 9.4
2018-Jul-12 09:00N 44°09' W 002°45'3 6.2
2018-Jul-12 08:30N 44°06' W 002°45'4 8.3
2018-Jul-12 08:00N 44°02' W 002°44'4 8.9
2018-Jul-12 07:30N 43°57' W 002°44'4 8.2
2018-Jul-12 07:00N 43°53' W 002°45'4 7.9
2018-Jul-12 06:29N 43°49' W 002°46'3 7.1
2018-Jul-12 06:00N 43°46' W 002°49'3 5.6
2018-Jul-12 05:30N 43°45' W 002°52'2 3.9
2018-Jul-12 05:01N 43°43' W 002°50'2 4.9
2018-Jul-12 04:30N 43°41' W 002°49'0 0.8
2018-Jul-12 04:00N 43°40' W 002°49'1 1.1
2018-Jul-12 03:30N 43°41' W 002°50'0 0.8
2018-Jul-12 03:00N 43°41' W 002°50'0 0.7
2018-Jul-12 02:30N 43°42' W 002°50'0 0.5
2018-Jul-12 02:00N 43°42' W 002°50'0 0.5
2018-Jul-12 01:30N 43°42' W 002°50'0 0.5
2018-Jul-12 01:00N 43°42' W 002°50'0 0.5
2018-Jul-12 00:30N 43°43' W 002°50'0 0.5
2018-Jul-12 00:00N 43°43' W 002°50'0 0.4
2018-Jul-11 23:30N 43°43' W 002°50'0 0.4
2018-Jul-11 23:00N 43°43' W 002°50'0 0.5
2018-Jul-11 22:30N 43°43' W 002°49'0 0.7
2018-Jul-11 22:00N 43°44' W 002°49'0 0.7
2018-Jul-11 21:30N 43°44' W 002°49'0 0.7
2018-Jul-11 21:00N 43°44' W 002°48'0 0.8
2018-Jul-11 20:30N 43°44' W 002°48'1 1.7
2018-Jul-11 20:00N 43°45' W 002°48'1 1.4
2018-Jul-11 19:30N 43°45' W 002°49'2 4.4
2018-Jul-11 19:00N 43°46' W 002°52'1 2.4
2018-Jul-11 18:30N 43°47' W 002°54'3 5.8
2018-Jul-11 18:01N 43°47' W 002°57'2 2.9
2018-Jul-11 17:23N 43°46' W 002°59'  

Dump ship's entire track history